CDT,Max TemperatureF,Mean TemperatureF,Min TemperatureF,Max Dew PointF,MeanDew PointF,Min DewpointF,Max Humidity, Mean Humidity, Min Humidity, Max Sea Level PressureIn, Mean Sea Level PressureIn, Min Sea Level PressureIn, Max VisibilityMiles, Mean VisibilityMiles, Min VisibilityMiles, Max Wind SpeedMPH, Mean Wind SpeedMPH, Max Gust SpeedMPH,PrecipitationIn, CloudCover, Events, WindDirDegrees
2010-10-1,72,58,48,50,46,41,93,75,52,30.24,30.12,30.07,10,10,9,18,4,26,0.00,3,,351
2010-10-2,55,48,41,42,36,31,86,65,39,30.46,30.40,30.26,10,10,8,12,7,18,0.00,0,,21
2010-10-3,60,48,37,40,35,31,93,64,35,30.48,30.41,30.33,10,10,9,8,3,,0.00,0,,160
2010-10-4,66,54,42,40,36,33,74,56,33,30.38,30.32,30.26,10,10,10,14,7,18,0.00,0,,176
2010-10-5,75,60,45,45,41,36,77,54,32,30.29,30.22,30.15,10,10,10,18,8,22,0.00,0,,165
2010-10-6,71,62,54,52,43,35,75,52,28,30.15,30.12,30.08,10,10,4,16,9,22,0.00,0,,291
2010-10-7,75,58,42,44,39,35,89,54,23,30.19,30.11,30.01,10,10,10,9,5,,0.00,0,,227
2010-10-8,88,71,54,58,48,38,84,52,30,30.01,29.90,29.84,10,10,9,8,5,,0.00,0,,203
2010-10-9,84,68,55,58,55,52,93,65,39,29.93,29.88,29.86,10,9,6,7,3,,0.00,0,,100
2010-10-10,79,66,53,56,53,48,93,68,42,29.90,29.86,29.81,10,9,4,8,3,,0.00,0,,144
2010-10-11,80,66,53,56,54,51,100,72,39,29.86,29.83,29.80,10,8,2,6,1,,0.00,0,,33
2010-10-12,72,62,54,55,49,37,93,66,46,30.13,29.97,29.86,10,10,8,16,5,25,0.00,0,,293
2010-10-13,66,56,46,38,34,29,71,47,27,30.23,30.19,30.14,10,10,10,13,6,21,0.00,0,,289
2010-10-14,69,56,43,36,35,32,76,49,28,30.16,29.99,29.86,10,10,10,21,8,30,0.00,0,,274
2010-10-15,62,50,39,39,37,35,83,60,41,30.16,30.07,29.98,10,10,10,10,5,,0.00,0,,114
2010-10-16,66,56,48,40,34,27,64,46,25,30.14,30.00,29.87,10,10,9,16,9,24,0.00,0,,287
2010-10-17,57,49,41,38,33,27,76,58,32,30.21,30.16,30.12,10,10,8,13,5,,0.00,4,Rain,260
2010-10-18,55,47,39,39,35,32,86,64,43,30.17,30.10,30.03,10,10,10,8,4,,0.01,3,,318
2010-10-19,61,49,37,40,35,31,96,66,36,30.03,29.93,29.79,10,10,6,10,5,,0.00,0,,237
2010-10-20,69,55,42,36,31,20,76,47,21,29.90,29.76,29.65,10,10,9,26,10,41,0.00,1,,274
2010-10-21,54,46,39,30,28,25,67,51,34,30.07,30.01,29.91,10,10,9,12,6,20,0.00,0,,301
2010-10-22,69,52,35,42,33,29,82,52,26,30.04,29.92,29.82,10,10,10,18,5,23,0.00,0,,169
2010-10-23,66,59,52,57,50,44,94,78,62,29.82,29.77,29.72,10,9,5,13,6,,0.00,6,,70
2010-10-24,57,55,53,56,53,50,100,94,86,29.73,29.60,29.50,10,6,0,14,8,20,0.43,8,Fog-Rain-Thunderstorm,166
2010-10-25,62,56,51,59,54,50,100,91,78,29.48,29.22,28.87,10,7,2,23,8,29,0.72,8,Rain-Thunderstorm,133
2010-10-26,63,52,42,60,46,30,94,85,60,28.99,28.76,28.62,10,8,2,33,18,47,0.39,8,Rain,220
2010-10-27,42,38,35,38,34,27,93,80,58,29.83,29.33,29.01,10,8,3,29,22,47,0.05,8,Rain-Snow,260
2010-10-28,42,36,30,30,27,24,82,68,53,30.38,30.17,29.84,10,10,10,21,16,31,0.00,5,,294
2010-10-29,55,40,26,36,29,24,96,67,39,30.36,30.10,29.78,10,10,10,17,5,23,0.00,0,,178
2010-10-30,52,44,37,37,33,29,80,64,48,30.12,29.89,29.71,10,10,10,13,8,,0.00,0,,326
2010-10-31,48,39,30,31,29,27,92,72,46,30.34,30.25,30.13,10,10,7,6,2,,0.00,0,,54